createdAt,value
2023-05-13T00:00:38.670Z,100.00
2023-05-13T00:02:32.795Z,100.00
2023-05-13T00:03:05.164Z,100.00
2023-05-13T00:05:31.644Z,100.00
2023-05-13T00:07:32.633Z,100.00
2023-05-13T00:08:01.918Z,100.00
2023-05-13T00:10:28.539Z,100.00
2023-05-13T00:12:32.607Z,100.00
2023-05-13T00:12:54.955Z,100.00
2023-05-13T00:15:21.425Z,100.00
2023-05-13T00:17:32.706Z,100.00
2023-05-13T00:17:47.888Z,100.00
2023-05-13T00:20:14.313Z,100.00
2023-05-13T00:22:32.607Z,100.00
2023-05-13T00:22:40.652Z,100.00
2023-05-13T00:25:07.420Z,100.00
2023-05-13T00:27:33.907Z,100.00
2023-05-13T00:27:34.050Z,100.00
2023-05-13T00:30:00.361Z,100.00
2023-05-13T00:32:27.466Z,100.00
2023-05-13T00:32:32.682Z,100.00
2023-05-13T00:34:53.816Z,100.00
2023-05-13T00:37:20.167Z,100.00
2023-05-13T00:37:32.653Z,100.00
2023-05-13T00:39:46.548Z,100.00
2023-05-13T00:42:13.646Z,100.00
2023-05-13T00:42:32.663Z,100.00
2023-05-13T00:44:40.925Z,100.00
2023-05-13T00:47:07.883Z,100.00
2023-05-13T00:47:32.631Z,100.00
2023-05-13T00:49:34.331Z,100.00
2023-05-13T00:52:01.546Z,100.00
2023-05-13T00:52:32.633Z,100.00
2023-05-13T00:54:29.161Z,100.00
2023-05-13T00:56:56.825Z,100.00
2023-05-13T00:57:32.656Z,100.00
2023-05-13T00:59:28.734Z,100.00
2023-05-13T01:02:07.779Z,100.00
2023-05-13T01:02:32.907Z,100.00
2023-05-13T01:04:59.961Z,100.00
2023-05-13T01:07:48.180Z,100.00
2023-05-13T01:07:48.321Z,100.00
2023-05-13T01:10:35.695Z,100.00
2023-05-13T01:12:32.624Z,100.00
2023-05-13T01:13:08.918Z,100.00
2023-05-13T01:15:41.391Z,100.00
2023-05-13T01:17:32.637Z,100.00
2023-05-13T01:18:18.720Z,100.00
2023-05-13T01:20:46.226Z,100.00
2023-05-13T01:22:32.652Z,100.00
2023-05-13T01:23:13.152Z,100.00
2023-05-13T01:25:40.616Z,100.00
2023-05-13T01:27:32.642Z,100.00
2023-05-13T01:28:08.856Z,100.00
2023-05-13T01:30:36.136Z,100.00
2023-05-13T01:32:32.652Z,100.00
2023-05-13T01:33:03.202Z,100.00
2023-05-13T01:35:31.277Z,100.00
2023-05-13T01:37:32.668Z,100.00
2023-05-13T01:37:58.061Z,100.00
2023-05-13T01:42:32.663Z,100.00
2023-05-13T01:42:57.403Z,100.00
2023-05-13T01:45:23.958Z,100.00
2023-05-13T01:47:32.689Z,100.00
2023-05-13T01:47:50.336Z,100.00
2023-05-13T01:50:16.780Z,100.00
2023-05-13T01:52:32.674Z,100.00
2023-05-13T01:52:43.181Z,100.00
2023-05-13T01:55:10.180Z,100.00
2023-05-13T01:57:32.678Z,100.00
2023-05-13T01:57:36.559Z,100.00
2023-05-13T02:00:04.108Z,100.00
2023-05-13T02:02:30.670Z,100.00
2023-05-13T02:02:32.814Z,100.00
2023-05-13T02:04:57.155Z,100.00
2023-05-13T02:07:23.591Z,100.00
2023-05-13T02:07:32.638Z,100.00
2023-05-13T02:09:58.890Z,100.00
2023-05-13T02:12:26.673Z,100.00
2023-05-13T02:12:32.725Z,100.00
2023-05-13T02:14:55.879Z,100.00
2023-05-13T02:17:22.516Z,100.00
2023-05-13T02:17:32.767Z,100.00
2023-05-13T02:19:49.219Z,100.00
2023-05-13T02:22:15.610Z,100.00
2023-05-13T02:22:32.666Z,100.00
2023-05-13T02:24:42.068Z,100.00
2023-05-13T02:27:12.720Z,100.00
2023-05-13T02:27:32.660Z,100.00
2023-05-13T02:29:39.159Z,100.00
2023-05-13T02:32:06.146Z,100.00
2023-05-13T02:32:32.733Z,100.00
2023-05-13T02:34:32.585Z,100.00
2023-05-13T02:36:58.923Z,100.00
2023-05-13T02:37:32.675Z,100.00
2023-05-13T02:39:25.292Z,100.00
2023-05-13T02:41:51.660Z,100.00
2023-05-13T02:42:32.652Z,100.00
2023-05-13T02:44:18.316Z,100.00
2023-05-13T02:46:44.792Z,100.00
2023-05-13T02:47:32.695Z,100.00
2023-05-13T02:49:11.251Z,100.00
2023-05-13T02:51:37.664Z,100.00
2023-05-13T02:52:32.672Z,100.00
2023-05-13T02:54:04.049Z,100.00
2023-05-13T02:56:30.482Z,100.00
2023-05-13T02:57:32.697Z,100.00
2023-05-13T02:58:56.958Z,100.00
2023-05-13T03:01:23.409Z,100.00
2023-05-13T03:02:32.832Z,100.00
2023-05-13T03:03:50.074Z,100.00
2023-05-13T03:06:16.495Z,100.00
2023-05-13T03:07:32.672Z,100.00
2023-05-13T03:08:42.901Z,100.00
2023-05-13T03:11:09.266Z,100.00
2023-05-13T03:12:32.667Z,100.00
2023-05-13T03:13:35.639Z,100.00
2023-05-13T03:16:02.100Z,100.00
2023-05-13T03:17:32.748Z,100.00
2023-05-13T03:18:31.410Z,100.00
2023-05-13T03:20:57.891Z,100.00
2023-05-13T03:22:32.701Z,100.00
2023-05-13T03:23:24.371Z,100.00
2023-05-13T03:25:51.072Z,100.00
2023-05-13T03:27:32.724Z,100.00
2023-05-13T03:28:17.542Z,100.00
2023-05-13T03:30:44.182Z,100.00
2023-05-13T03:32:32.729Z,100.00
2023-05-13T03:33:10.650Z,100.00
2023-05-13T03:35:37.143Z,100.00
2023-05-13T03:37:32.688Z,100.00
2023-05-13T03:38:03.585Z,100.00
2023-05-13T03:40:30.184Z,100.00
2023-05-13T03:42:32.686Z,100.00
2023-05-13T03:42:56.535Z,100.00
2023-05-13T03:45:22.895Z,100.00
2023-05-13T03:47:32.705Z,100.00
2023-05-13T03:47:49.980Z,100.00
2023-05-13T03:50:17.161Z,100.00
2023-05-13T03:52:32.674Z,100.00
2023-05-13T03:52:45.516Z,100.00
2023-05-13T03:55:14.913Z,100.00
2023-05-13T03:57:32.749Z,100.00
2023-05-13T03:57:45.150Z,100.00
2023-05-13T04:00:12.260Z,100.00
2023-05-13T04:02:32.884Z,100.00
2023-05-13T04:02:38.738Z,100.00
2023-05-13T04:05:06.268Z,100.00
2023-05-13T04:07:32.742Z,100.00
2023-05-13T04:07:32.905Z,100.00
2023-05-13T04:09:59.124Z,100.00
2023-05-13T04:12:25.513Z,100.00
2023-05-13T04:12:32.708Z,100.00
2023-05-13T04:14:51.858Z,100.00
2023-05-13T04:17:18.213Z,100.00
2023-05-13T04:17:32.728Z,100.00
2023-05-13T04:19:44.584Z,100.00
2023-05-13T04:22:10.940Z,100.00
2023-05-13T04:22:32.735Z,100.00
2023-05-13T04:24:37.274Z,100.00
2023-05-13T04:27:03.767Z,100.00
2023-05-13T04:27:32.712Z,100.00
2023-05-13T04:29:30.208Z,100.00
2023-05-13T04:31:56.599Z,100.00
2023-05-13T04:32:32.725Z,100.00
2023-05-13T04:34:23.086Z,100.00
2023-05-13T04:36:49.464Z,100.00
2023-05-13T04:37:32.712Z,100.00
2023-05-13T04:39:15.872Z,100.00
2023-05-13T04:41:42.341Z,100.00
2023-05-13T04:42:32.702Z,100.00
2023-05-13T04:44:08.730Z,100.00
2023-05-13T04:46:37.994Z,97.93
2023-05-13T04:47:32.781Z,97.93
2023-05-13T04:49:04.410Z,97.62
2023-05-13T04:51:32.393Z,97.81
2023-05-13T04:52:32.722Z,97.81
2023-05-13T04:53:59.216Z,95.38
2023-05-13T04:56:26.071Z,95.17
2023-05-13T04:57:32.695Z,95.17
2023-05-13T04:58:52.381Z,96.59
2023-05-13T05:01:18.931Z,98.74
2023-05-13T05:02:32.828Z,98.74
2023-05-13T05:03:45.450Z,100.00
2023-05-13T05:06:11.885Z,100.00
2023-05-13T05:07:32.752Z,100.00
2023-05-13T05:08:38.293Z,100.00
2023-05-13T05:11:05.597Z,100.00
2023-05-13T05:12:32.698Z,100.00
2023-05-13T05:13:31.939Z,100.00
2023-05-13T05:15:58.332Z,100.00
2023-05-13T05:17:32.975Z,100.00
2023-05-13T05:18:24.786Z,100.00
2023-05-13T05:20:51.333Z,100.00
2023-05-13T05:22:32.744Z,100.00
2023-05-13T05:23:17.702Z,100.00
2023-05-13T05:25:44.111Z,100.00
2023-05-13T05:27:32.746Z,100.00
2023-05-13T05:28:10.431Z,100.00
2023-05-13T05:30:39.875Z,100.00
2023-05-13T05:32:32.806Z,100.00
2023-05-13T05:33:07.463Z,100.00
2023-05-13T05:35:38.300Z,100.00
2023-05-13T05:37:32.734Z,100.00
2023-05-13T05:38:05.442Z,100.00
2023-05-13T05:40:32.998Z,100.00
2023-05-13T05:42:32.746Z,100.00
2023-05-13T05:42:59.377Z,100.00
2023-05-13T05:45:25.835Z,100.00
2023-05-13T05:47:32.740Z,100.00
2023-05-13T05:47:54.108Z,100.00
2023-05-13T05:50:21.349Z,100.00
2023-05-13T05:52:32.719Z,100.00
2023-05-13T05:52:47.861Z,100.00
2023-05-13T05:55:14.243Z,100.00
2023-05-13T05:57:32.722Z,100.00
2023-05-13T05:57:40.667Z,100.00
2023-05-13T06:00:07.886Z,100.00
2023-05-13T06:02:32.914Z,100.00
2023-05-13T06:02:34.370Z,100.00
2023-05-13T06:05:00.997Z,100.00
2023-05-13T06:07:27.314Z,100.00
2023-05-13T06:07:32.742Z,100.00
2023-05-13T06:09:53.683Z,100.00
2023-05-13T06:12:20.024Z,100.00
2023-05-13T06:12:32.824Z,100.00
2023-05-13T06:14:46.392Z,100.00
2023-05-13T06:17:14.753Z,100.00
2023-05-13T06:17:32.725Z,100.00
2023-05-13T06:19:44.404Z,100.00
2023-05-13T06:22:11.214Z,100.00
2023-05-13T06:22:32.761Z,100.00
2023-05-13T06:24:38.864Z,100.00
2023-05-13T06:27:05.530Z,100.00
2023-05-13T06:27:32.767Z,100.00
2023-05-13T06:29:32.058Z,100.00
2023-05-13T06:31:58.846Z,100.00
2023-05-13T06:32:32.759Z,100.00
2023-05-13T06:34:25.248Z,100.00
2023-05-13T06:36:51.652Z,100.00
2023-05-13T06:37:32.735Z,100.00
2023-05-13T06:39:17.990Z,100.00
2023-05-13T06:41:44.362Z,100.00
2023-05-13T06:42:32.733Z,100.00
2023-05-13T06:44:10.752Z,100.00
2023-05-13T06:46:37.202Z,100.00
2023-05-13T06:47:32.755Z,100.00
2023-05-13T06:49:03.644Z,100.00
2023-05-13T06:51:32.648Z,100.00
2023-05-13T06:52:32.766Z,100.00
2023-05-13T06:53:59.214Z,100.00
2023-05-13T06:56:25.860Z,100.00
2023-05-13T06:57:42.405Z,100.00
2023-05-13T06:58:53.090Z,100.00
2023-05-13T07:01:19.866Z,100.00
2023-05-13T07:02:32.887Z,100.00
2023-05-13T07:03:46.294Z,97.35
2023-05-13T07:06:12.668Z,95.53
2023-05-13T07:07:32.764Z,95.53
2023-05-13T07:08:40.312Z,92.40
2023-05-13T07:11:06.956Z,90.29
2023-05-13T07:12:32.755Z,90.29
2023-05-13T07:13:34.749Z,90.06
2023-05-13T07:16:02.307Z,89.98
2023-05-13T07:17:32.870Z,89.98
2023-05-13T07:18:29.558Z,88.89
2023-05-13T07:20:58.858Z,88.15
2023-05-13T07:22:32.734Z,88.15
2023-05-13T07:23:25.264Z,87.33
2023-05-13T07:25:52.066Z,84.92
2023-05-13T07:27:32.720Z,84.92
2023-05-13T07:28:20.667Z,83.16
2023-05-13T07:30:47.155Z,80.22
2023-05-13T07:32:32.798Z,80.22
2023-05-13T07:33:14.811Z,78.68
2023-05-13T07:35:41.275Z,78.81
2023-05-13T07:37:32.738Z,78.81
2023-05-13T07:38:09.207Z,78.92
2023-05-13T07:40:35.598Z,79.02
2023-05-13T07:42:32.758Z,79.02
2023-05-13T07:43:02.059Z,79.55
2023-05-13T07:45:28.965Z,79.21
2023-05-13T07:47:32.778Z,79.21
2023-05-13T07:47:56.253Z,78.26
2023-05-13T07:50:22.802Z,76.71
2023-05-13T07:52:32.781Z,76.71
2023-05-13T07:52:50.588Z,75.52
2023-05-13T07:55:17.263Z,73.75
2023-05-13T07:57:32.774Z,73.75
2023-05-13T07:57:43.829Z,74.32
2023-05-13T08:00:10.812Z,77.59
2023-05-13T08:02:32.906Z,77.59
2023-05-13T08:02:38.649Z,78.84
2023-05-13T08:05:06.546Z,79.15
2023-05-13T08:07:33.063Z,77.98
2023-05-13T08:07:33.850Z,77.98
2023-05-13T08:09:59.421Z,77.48
2023-05-13T08:12:26.225Z,75.89
2023-05-13T08:12:32.727Z,75.89
2023-05-13T08:14:52.845Z,73.80
2023-05-13T08:17:19.562Z,71.34
2023-05-13T08:17:32.813Z,71.34
2023-05-13T08:19:46.244Z,72.70
2023-05-13T08:22:12.670Z,71.12
2023-05-13T08:22:32.745Z,71.12
2023-05-13T08:24:40.892Z,70.55
2023-05-13T08:27:07.214Z,70.47
2023-05-13T08:27:32.757Z,70.47
2023-05-13T08:29:33.584Z,67.82
2023-05-13T08:31:59.983Z,65.57
2023-05-13T08:32:32.751Z,65.57
2023-05-13T08:34:26.395Z,65.32
2023-05-13T08:36:52.800Z,64.62
2023-05-13T08:37:32.786Z,64.62
2023-05-13T08:39:19.157Z,65.83
2023-05-13T08:41:46.344Z,64.36
2023-05-13T08:42:32.725Z,64.36
2023-05-13T08:44:13.646Z,65.27
2023-05-13T08:46:43.786Z,66.27
2023-05-13T08:47:34.307Z,66.27
2023-05-13T08:49:10.654Z,67.83
2023-05-13T08:51:37.169Z,68.96
2023-05-13T08:52:32.764Z,68.96
2023-05-13T08:54:03.733Z,69.80
2023-05-13T08:56:30.087Z,69.54
2023-05-13T08:57:32.771Z,69.54
2023-05-13T08:58:56.753Z,68.51
2023-05-13T09:01:24.958Z,70.16
2023-05-13T09:02:32.782Z,70.16
2023-05-13T09:04:11.753Z,72.26
2023-05-13T09:06:38.384Z,71.58
2023-05-13T09:07:32.745Z,71.58
2023-05-13T09:09:05.792Z,71.17
2023-05-13T09:11:33.888Z,72.00
2023-05-13T09:12:32.768Z,72.00
2023-05-13T09:14:02.648Z,69.99
2023-05-13T09:16:29.566Z,69.26
2023-05-13T09:17:32.745Z,69.26
2023-05-13T09:19:04.894Z,68.26
2023-05-13T09:21:35.375Z,67.29
2023-05-13T09:22:32.776Z,67.29
2023-05-13T09:24:18.789Z,66.98
2023-05-13T09:26:46.006Z,64.26
2023-05-13T09:27:32.737Z,64.26
2023-05-13T09:29:25.921Z,61.82
2023-05-13T09:31:58.872Z,59.00
2023-05-13T09:32:32.768Z,59.00
2023-05-13T09:34:27.836Z,58.57
2023-05-13T09:36:58.008Z,58.69
2023-05-13T09:37:32.789Z,58.69
2023-05-13T09:39:24.914Z,59.35
2023-05-13T09:41:52.582Z,59.76
2023-05-13T09:42:32.742Z,59.76
2023-05-13T09:44:19.074Z,61.70
2023-05-13T09:46:45.515Z,61.62
2023-05-13T09:47:32.766Z,61.62
2023-05-13T09:49:12.116Z,61.60
2023-05-13T09:51:38.604Z,60.48
2023-05-13T09:52:32.735Z,60.48
2023-05-13T09:54:06.356Z,59.85
2023-05-13T09:56:35.286Z,54.55
2023-05-13T09:57:32.777Z,54.55
2023-05-13T09:59:02.730Z,52.67
2023-05-13T10:01:30.297Z,53.79
2023-05-13T10:02:32.889Z,53.79
2023-05-13T10:03:59.433Z,53.79
2023-05-13T10:06:28.183Z,52.96
2023-05-13T10:07:32.769Z,52.96
2023-05-13T10:08:57.897Z,52.35
2023-05-13T10:11:25.128Z,51.20
2023-05-13T10:12:32.789Z,51.20
2023-05-13T10:13:58.690Z,50.21
2023-05-13T10:16:27.123Z,52.06
2023-05-13T10:17:32.780Z,52.06
2023-05-13T10:18:54.111Z,51.07
2023-05-13T10:21:20.709Z,51.62
2023-05-13T10:22:32.778Z,51.62
2023-05-13T10:23:48.011Z,50.55
2023-05-13T10:26:14.587Z,50.14
2023-05-13T10:27:32.800Z,50.14
2023-05-13T10:28:42.789Z,49.47
2023-05-13T10:31:09.453Z,51.36
2023-05-13T10:32:32.796Z,51.36
2023-05-13T10:33:35.904Z,50.74
2023-05-13T10:36:39.233Z,48.31
2023-05-13T10:37:32.758Z,48.31
2023-05-13T10:39:19.093Z,47.07
2023-05-13T10:42:19.453Z,47.09
2023-05-13T10:42:32.757Z,47.09
2023-05-13T10:44:45.912Z,47.75
2023-05-13T10:47:13.695Z,48.19
2023-05-13T10:47:32.797Z,48.19
2023-05-13T10:49:40.423Z,47.32
2023-05-13T10:52:09.584Z,45.90
2023-05-13T10:52:32.779Z,45.90
2023-05-13T10:54:39.068Z,47.93
2023-05-13T10:57:06.188Z,48.47
2023-05-13T10:57:32.762Z,48.47
2023-05-13T10:59:34.857Z,47.03
2023-05-13T11:02:03.449Z,48.10
2023-05-13T11:02:33.024Z,48.10
2023-05-13T11:04:30.004Z,48.11
2023-05-13T11:07:15.038Z,46.67
2023-05-13T11:07:32.848Z,46.67
2023-05-13T11:09:41.557Z,46.39
2023-05-13T11:12:14.975Z,45.80
2023-05-13T11:12:32.765Z,45.80
2023-05-13T11:14:43.956Z,44.37
2023-05-13T11:17:11.426Z,46.23
2023-05-13T11:17:32.795Z,46.23
2023-05-13T11:19:44.459Z,44.11
2023-05-13T11:22:21.899Z,44.24
2023-05-13T11:22:32.761Z,44.24
2023-05-13T11:25:09.264Z,45.83
2023-05-13T11:27:32.763Z,45.83
2023-05-13T11:27:41.298Z,42.96
2023-05-13T11:30:23.154Z,46.76
2023-05-13T11:32:32.819Z,46.76
2023-05-13T11:32:53.304Z,48.23
2023-05-13T11:35:26.714Z,43.55
2023-05-13T11:37:32.777Z,43.55
2023-05-13T11:37:54.573Z,43.55
2023-05-13T11:40:32.592Z,47.61
2023-05-13T11:42:32.780Z,47.61
2023-05-13T11:42:59.847Z,44.24
2023-05-13T11:45:27.900Z,44.17
2023-05-13T11:47:32.816Z,44.17
2023-05-13T11:47:56.036Z,44.17
2023-05-13T11:50:23.833Z,45.89
2023-05-13T11:52:32.762Z,45.89
2023-05-13T11:52:52.503Z,44.16
2023-05-13T11:55:29.203Z,43.00
2023-05-13T11:57:32.941Z,43.00
2023-05-13T11:57:56.443Z,44.98
2023-05-13T12:00:30.889Z,42.78
2023-05-13T12:02:32.908Z,42.78
2023-05-13T12:02:58.785Z,42.84
2023-05-13T12:05:26.006Z,42.67
2023-05-13T12:07:32.782Z,42.67
2023-05-13T12:07:57.913Z,42.05
2023-05-13T12:10:27.445Z,43.63
2023-05-13T12:12:32.840Z,43.63
2023-05-13T12:12:54.306Z,45.04
2023-05-13T12:15:27.020Z,45.94
2023-05-13T12:17:32.804Z,45.94
2023-05-13T12:17:54.679Z,45.33
2023-05-13T12:20:23.258Z,45.27
2023-05-13T12:22:32.786Z,45.27
2023-05-13T12:22:52.712Z,46.51
2023-05-13T12:25:43.392Z,46.94
2023-05-13T12:27:32.810Z,46.94
2023-05-13T12:28:35.888Z,45.72
2023-05-13T12:31:05.521Z,45.75
2023-05-13T12:32:32.815Z,45.75
2023-05-13T12:33:43.503Z,43.80
2023-05-13T12:36:31.992Z,44.51
2023-05-13T12:37:33.009Z,44.51
2023-05-13T12:39:01.234Z,44.57
2023-05-13T12:41:35.895Z,44.10
2023-05-13T12:42:32.782Z,44.10
2023-05-13T12:44:10.977Z,45.00
2023-05-13T12:46:37.936Z,43.84
2023-05-13T12:47:32.857Z,43.84
2023-05-13T12:49:05.297Z,42.65
2023-05-13T12:51:33.766Z,43.90
2023-05-13T12:52:32.807Z,43.90
2023-05-13T12:54:00.867Z,43.38
2023-05-13T12:56:27.335Z,43.57
2023-05-13T12:57:32.802Z,43.57
2023-05-13T12:58:54.329Z,43.71
2023-05-13T13:01:21.588Z,43.60
2023-05-13T13:02:32.961Z,43.60
2023-05-13T13:03:48.102Z,43.42
2023-05-13T13:06:15.084Z,42.10
2023-05-13T13:07:32.893Z,42.10
2023-05-13T13:08:43.831Z,42.08
2023-05-13T13:11:10.767Z,41.57
2023-05-13T13:12:32.783Z,41.57
2023-05-13T13:13:39.221Z,41.47
2023-05-13T13:16:06.346Z,42.16
2023-05-13T13:17:32.878Z,42.16
2023-05-13T13:18:32.918Z,41.56
2023-05-13T13:20:59.352Z,42.67
2023-05-13T13:22:32.799Z,42.67
2023-05-13T13:23:28.923Z,41.52
2023-05-13T13:25:55.324Z,41.85
2023-05-13T13:27:32.805Z,41.85
2023-05-13T13:28:21.706Z,40.77
2023-05-13T13:30:48.214Z,40.76
2023-05-13T13:32:32.831Z,40.76
2023-05-13T13:33:15.497Z,40.51
2023-05-13T13:35:45.706Z,39.92
2023-05-13T13:37:32.858Z,39.92
2023-05-13T13:38:12.056Z,41.36
2023-05-13T13:40:39.033Z,41.41
2023-05-13T13:42:43.317Z,41.41
2023-05-13T13:43:06.802Z,41.83
2023-05-13T13:45:33.584Z,42.59
2023-05-13T13:47:32.879Z,42.59
2023-05-13T13:48:00.417Z,41.35
2023-05-13T13:50:27.125Z,42.53
2023-05-13T13:52:32.837Z,42.53
2023-05-13T13:52:53.680Z,42.59
2023-05-13T13:55:21.486Z,41.37
2023-05-13T13:57:32.823Z,41.37
2023-05-13T13:57:48.087Z,39.94
2023-05-13T14:00:15.882Z,40.81
2023-05-13T14:02:32.976Z,40.81
2023-05-13T14:02:43.939Z,40.46
2023-05-13T14:05:11.661Z,39.83
2023-05-13T14:07:32.808Z,39.83
2023-05-13T14:07:38.339Z,41.12
2023-05-13T14:10:05.896Z,41.60
2023-05-13T14:12:32.518Z,41.17
2023-05-13T14:12:32.836Z,41.17
2023-05-13T14:14:59.220Z,40.73
2023-05-13T14:17:25.836Z,40.41
2023-05-13T14:17:32.890Z,40.41
2023-05-13T14:19:55.001Z,40.91
2023-05-13T14:22:24.613Z,41.51
2023-05-13T14:22:32.814Z,41.51
2023-05-13T14:24:53.906Z,40.77
2023-05-13T14:27:21.632Z,42.88
2023-05-13T14:27:32.837Z,42.88
2023-05-13T14:29:48.563Z,43.70
2023-05-13T14:32:15.375Z,42.52
2023-05-13T14:32:32.861Z,42.52
2023-05-13T14:34:42.241Z,43.42
2023-05-13T14:37:09.060Z,43.00
2023-05-13T14:37:32.946Z,43.00
2023-05-13T14:39:35.677Z,43.62
2023-05-13T14:42:02.271Z,42.28
2023-05-13T14:42:32.857Z,42.28
2023-05-13T14:44:28.672Z,41.57
2023-05-13T14:46:55.136Z,39.38
2023-05-13T14:47:32.856Z,39.38
2023-05-13T14:49:21.701Z,40.33
2023-05-13T14:51:48.121Z,40.46
2023-05-13T14:52:32.828Z,40.46
2023-05-13T14:54:14.467Z,39.65
2023-05-13T14:56:41.478Z,39.15
2023-05-13T14:57:32.837Z,39.15
2023-05-13T14:59:08.237Z,39.37
2023-05-13T15:01:37.073Z,38.99
2023-05-13T15:02:32.947Z,38.99
2023-05-13T15:04:03.504Z,38.71
2023-05-13T15:06:29.911Z,38.02
2023-05-13T15:07:33.104Z,38.02
2023-05-13T15:08:57.368Z,37.90
2023-05-13T15:11:24.695Z,41.55
2023-05-13T15:12:32.855Z,41.55
2023-05-13T15:13:51.083Z,44.09
2023-05-13T15:16:17.426Z,46.02
2023-05-13T15:17:32.889Z,46.02
2023-05-13T15:18:43.873Z,46.92
2023-05-13T15:21:10.315Z,47.17
2023-05-13T15:22:34.065Z,47.17
2023-05-13T15:23:36.845Z,47.78
2023-05-13T15:26:03.365Z,46.30
2023-05-13T15:27:32.811Z,46.30
2023-05-13T15:28:29.716Z,46.40
2023-05-13T15:30:56.290Z,45.49
2023-05-13T15:32:32.931Z,45.49
2023-05-13T15:33:22.915Z,45.15
2023-05-13T15:35:49.311Z,43.56
2023-05-13T15:37:32.848Z,43.56
2023-05-13T15:38:15.728Z,44.60
2023-05-13T15:40:42.215Z,45.96
2023-05-13T15:42:32.820Z,45.96
2023-05-13T15:43:08.579Z,47.85
2023-05-13T15:45:35.053Z,50.92
2023-05-13T15:47:32.898Z,50.92
2023-05-13T15:48:01.601Z,52.64
2023-05-13T15:50:28.008Z,53.81
2023-05-13T15:52:32.875Z,53.81
2023-05-13T15:52:54.739Z,56.60
2023-05-13T15:55:21.819Z,59.53
2023-05-13T15:57:32.838Z,59.53
2023-05-13T15:57:50.150Z,61.35
2023-05-13T16:00:17.797Z,63.68
2023-05-13T16:02:32.967Z,63.68
2023-05-13T16:02:44.360Z,64.48
2023-05-13T16:05:15.672Z,65.17
2023-05-13T16:07:32.874Z,65.17
2023-05-13T16:07:42.460Z,65.62
2023-05-13T16:10:09.288Z,65.38
2023-05-13T16:12:32.847Z,65.38
2023-05-13T16:12:36.047Z,65.11
2023-05-13T16:15:02.583Z,64.42
2023-05-13T16:17:29.447Z,62.97
2023-05-13T16:17:32.868Z,62.97
2023-05-13T16:19:55.937Z,61.64
2023-05-13T16:22:30.724Z,62.05
2023-05-13T16:22:32.888Z,62.05
2023-05-13T16:25:17.191Z,62.22
2023-05-13T16:27:32.825Z,62.22
2023-05-13T16:27:43.643Z,63.54
2023-05-13T16:30:13.295Z,65.45
2023-05-13T16:32:32.873Z,65.45
2023-05-13T16:32:39.983Z,64.67
2023-05-13T16:35:07.134Z,65.39
2023-05-13T16:37:36.542Z,67.08
2023-05-13T16:37:36.672Z,67.08
2023-05-13T16:40:03.238Z,67.21
2023-05-13T16:42:29.664Z,67.45
2023-05-13T16:42:32.837Z,67.45
2023-05-13T16:44:56.120Z,69.50
2023-05-13T16:47:22.546Z,70.67
2023-05-13T16:47:32.864Z,70.67
2023-05-13T16:49:50.186Z,69.36
2023-05-13T16:52:16.725Z,68.46
2023-05-13T16:52:32.872Z,68.46
2023-05-13T16:54:43.097Z,67.92
2023-05-13T16:57:09.591Z,68.36
2023-05-13T16:57:32.842Z,68.36
2023-05-13T16:59:35.914Z,66.35
2023-05-13T17:02:02.387Z,65.09
2023-05-13T17:02:33.035Z,65.09
2023-05-13T17:04:28.911Z,64.44
2023-05-13T17:06:58.274Z,66.06
2023-05-13T17:07:32.862Z,66.06
2023-05-13T17:09:27.609Z,68.30
2023-05-13T17:11:54.733Z,69.92
2023-05-13T17:12:32.870Z,69.92
2023-05-13T17:14:21.536Z,69.70
2023-05-13T17:16:48.142Z,71.01
2023-05-13T17:17:32.938Z,71.01
2023-05-13T17:19:14.788Z,70.12
2023-05-13T17:21:41.389Z,70.36
2023-05-13T17:22:32.852Z,70.36
2023-05-13T17:24:08.206Z,69.24
2023-05-13T17:26:36.128Z,69.90
2023-05-13T17:27:32.848Z,69.90
2023-05-13T17:29:03.917Z,70.23
2023-05-13T17:31:30.573Z,70.69
2023-05-13T17:32:32.881Z,70.69
2023-05-13T17:33:56.981Z,71.47
2023-05-13T17:36:23.411Z,71.67
2023-05-13T17:37:32.868Z,71.67
2023-05-13T17:38:50.215Z,73.40
2023-05-13T17:41:16.584Z,74.74
2023-05-13T17:42:32.834Z,74.74
2023-05-13T17:43:42.978Z,75.53
2023-05-13T17:46:09.332Z,76.27
2023-05-13T17:47:32.946Z,76.27
2023-05-13T17:48:36.147Z,77.07
2023-05-13T17:51:02.685Z,76.58
2023-05-13T17:52:32.839Z,76.58
2023-05-13T17:53:33.845Z,76.23
2023-05-13T17:56:01.242Z,75.19
2023-05-13T17:57:32.863Z,75.19
2023-05-13T17:58:27.687Z,75.21
2023-05-13T18:00:54.235Z,75.50
2023-05-13T18:02:32.999Z,75.50
2023-05-13T18:03:21.766Z,75.51
2023-05-13T18:05:48.611Z,75.28
2023-05-13T18:07:32.852Z,75.28
2023-05-13T18:08:15.035Z,75.27
2023-05-13T18:10:41.424Z,75.71
2023-05-13T18:12:32.891Z,75.71
2023-05-13T18:13:07.768Z,76.75
2023-05-13T18:15:34.388Z,78.02
2023-05-13T18:17:32.941Z,78.02
2023-05-13T18:18:01.042Z,78.27
2023-05-13T18:20:27.406Z,78.63
2023-05-13T18:22:32.957Z,78.63
2023-05-13T18:22:53.724Z,79.37
2023-05-13T18:25:20.105Z,80.18
2023-05-13T18:27:33.015Z,80.18
2023-05-13T18:27:46.492Z,81.29
2023-05-13T18:30:15.001Z,82.05
2023-05-13T18:32:33.028Z,82.05
2023-05-13T18:32:41.419Z,82.87
2023-05-13T18:35:08.267Z,83.55
2023-05-13T18:37:33.120Z,83.55
2023-05-13T18:37:35.296Z,84.71
2023-05-13T18:40:04.755Z,84.90
2023-05-13T18:42:31.164Z,85.97
2023-05-13T18:42:33.039Z,85.97
2023-05-13T18:44:57.577Z,86.71
2023-05-13T18:47:23.921Z,87.11
2023-05-13T18:47:33.110Z,87.11
2023-05-13T18:49:50.336Z,87.71
2023-05-13T18:52:16.857Z,88.00
2023-05-13T18:52:33.112Z,88.00
2023-05-13T18:54:43.282Z,88.31
2023-05-13T18:57:09.680Z,86.85
2023-05-13T18:57:33.101Z,86.85
2023-05-13T18:59:36.024Z,85.98
2023-05-13T19:02:02.548Z,86.06
2023-05-13T19:02:33.412Z,86.06
2023-05-13T19:04:29.309Z,86.27
2023-05-13T19:06:55.992Z,87.00
2023-05-13T19:07:33.196Z,87.00
2023-05-13T19:09:22.516Z,86.65
2023-05-13T19:11:48.880Z,86.21
2023-05-13T19:12:33.228Z,86.21
2023-05-13T19:14:15.269Z,87.12
2023-05-13T19:16:41.703Z,87.16
2023-05-13T19:17:33.338Z,87.16
2023-05-13T19:19:08.248Z,87.76
2023-05-13T19:21:34.728Z,88.41
2023-05-13T19:22:33.192Z,88.41
2023-05-13T19:24:03.210Z,88.26
2023-05-13T19:26:30.264Z,89.19
2023-05-13T19:27:33.242Z,89.19
2023-05-13T19:28:56.653Z,90.07
2023-05-13T19:31:24.080Z,90.89
2023-05-13T19:32:33.274Z,90.89
2023-05-13T19:33:50.484Z,90.83
2023-05-13T19:36:16.910Z,92.49
2023-05-13T19:37:33.404Z,92.49
2023-05-13T19:38:43.415Z,92.23
2023-05-13T19:41:09.825Z,92.44
2023-05-13T19:42:33.388Z,92.44
2023-05-13T19:43:36.213Z,92.96
2023-05-13T19:46:02.741Z,93.85
2023-05-13T19:47:33.389Z,93.85
2023-05-13T19:48:30.131Z,94.33
2023-05-13T19:50:57.801Z,94.44
2023-05-13T19:52:33.453Z,94.44
2023-05-13T19:53:24.279Z,95.97
2023-05-13T19:55:50.646Z,96.59
2023-05-13T19:57:33.457Z,96.59
2023-05-13T19:58:17.472Z,96.73
2023-05-13T20:00:44.137Z,96.97
2023-05-13T20:02:33.590Z,96.97
2023-05-13T20:03:11.104Z,96.92
2023-05-13T20:05:39.828Z,97.21
2023-05-13T20:07:33.455Z,97.21
2023-05-13T20:08:06.415Z,98.13
2023-05-13T20:10:35.069Z,98.97
2023-05-13T20:12:33.511Z,98.97
2023-05-13T20:13:03.980Z,99.98
2023-05-13T20:15:31.514Z,100.00
2023-05-13T20:17:33.630Z,100.00
2023-05-13T20:17:57.972Z,100.00
2023-05-13T20:20:24.591Z,100.00
2023-05-13T20:22:33.489Z,100.00
2023-05-13T20:22:51.092Z,100.00
2023-05-13T20:25:17.495Z,100.00
2023-05-13T20:27:33.508Z,100.00
2023-05-13T20:27:43.933Z,100.00
2023-05-13T20:30:11.262Z,100.00
2023-05-13T20:32:33.573Z,100.00
2023-05-13T20:32:37.762Z,100.00
2023-05-13T20:35:04.468Z,100.00
2023-05-13T20:37:30.810Z,100.00
2023-05-13T20:37:33.662Z,100.00
2023-05-13T20:39:59.330Z,100.00
2023-05-13T20:42:26.619Z,100.00
2023-05-13T20:42:33.633Z,100.00
2023-05-13T20:44:53.398Z,100.00
2023-05-13T20:47:20.548Z,100.00
2023-05-13T20:47:33.604Z,100.00
2023-05-13T20:49:46.979Z,100.00
2023-05-13T20:52:13.406Z,100.00
2023-05-13T20:52:33.689Z,100.00
2023-05-13T20:54:39.756Z,100.00
2023-05-13T20:57:06.291Z,100.00
2023-05-13T20:57:33.672Z,100.00
2023-05-13T20:59:32.715Z,100.00
2023-05-13T21:01:59.175Z,100.00
2023-05-13T21:02:33.785Z,100.00